sensor_id;sensor_type;location;lat;lon;timestamp;temperature;humidity
16517;DHT22;8371;52.272;9.746;2022-12-18T00:01:36;-5.50;79.30
16517;DHT22;8371;52.272;9.746;2022-12-18T00:04:04;-5.50;79.30
16517;DHT22;8371;52.272;9.746;2022-12-18T00:06:31;-5.60;79.30
16517;DHT22;8371;52.272;9.746;2022-12-18T00:08:59;-5.60;79.30
16517;DHT22;8371;52.272;9.746;2022-12-18T00:11:28;-5.70;79.20
16517;DHT22;8371;52.272;9.746;2022-12-18T00:13:55;-5.70;79.20
16517;DHT22;8371;52.272;9.746;2022-12-18T00:16:23;-5.80;79.30
16517;DHT22;8371;52.272;9.746;2022-12-18T00:18:51;-5.80;79.40
16517;DHT22;8371;52.272;9.746;2022-12-18T00:21:22;-5.80;79.50
16517;DHT22;8371;52.272;9.746;2022-12-18T00:23:47;-5.80;79.60
16517;DHT22;8371;52.272;9.746;2022-12-18T00:26:25;-5.80;79.70
16517;DHT22;8371;52.272;9.746;2022-12-18T00:28:49;-5.90;79.80
16517;DHT22;8371;52.272;9.746;2022-12-18T00:31:17;-5.90;79.80
16517;DHT22;8371;52.272;9.746;2022-12-18T00:33:43;-5.90;79.40
16517;DHT22;8371;52.272;9.746;2022-12-18T00:36:12;-6.00;79.10
16517;DHT22;8371;52.272;9.746;2022-12-18T00:38:38;-6.00;79.00
16517;DHT22;8371;52.272;9.746;2022-12-18T00:41:05;-6.00;79.00
16517;DHT22;8371;52.272;9.746;2022-12-18T00:43:33;-6.10;78.80
16517;DHT22;8371;52.272;9.746;2022-12-18T00:45:59;-6.10;78.80
16517;DHT22;8371;52.272;9.746;2022-12-18T00:48:24;-6.20;78.90
16517;DHT22;8371;52.272;9.746;2022-12-18T00:50:50;-6.20;78.90
16517;DHT22;8371;52.272;9.746;2022-12-18T00:53:17;-6.30;79.00
16517;DHT22;8371;52.272;9.746;2022-12-18T00:55:43;-6.30;79.90
16517;DHT22;8371;52.272;9.746;2022-12-18T00:58:10;-6.30;79.10
16517;DHT22;8371;52.272;9.746;2022-12-18T01:00:36;-6.40;79.00
16517;DHT22;8371;52.272;9.746;2022-12-18T01:03:04;-6.40;79.00
16517;DHT22;8371;52.272;9.746;2022-12-18T01:05:29;-6.40;79.10
16517;DHT22;8371;52.272;9.746;2022-12-18T01:07:56;-6.40;79.10
16517;DHT22;8371;52.272;9.746;2022-12-18T01:10:22;-6.50;79.10
16517;DHT22;8371;52.272;9.746;2022-12-18T01:12:49;-6.50;79.00
16517;DHT22;8371;52.272;9.746;2022-12-18T01:15:15;-6.50;79.10
16517;DHT22;8371;52.272;9.746;2022-12-18T01:17:41;-6.50;79.10
16517;DHT22;8371;52.272;9.746;2022-12-18T01:20:09;-6.60;78.60
16517;DHT22;8371;52.272;9.746;2022-12-18T01:22:36;-6.60;79.10
16517;DHT22;8371;52.272;9.746;2022-12-18T01:25:04;-6.60;79.10
16517;DHT22;8371;52.272;9.746;2022-12-18T01:27:30;-6.60;79.10
16517;DHT22;8371;52.272;9.746;2022-12-18T01:29:56;-6.70;79.00
16517;DHT22;8371;52.272;9.746;2022-12-18T01:32:22;-6.70;78.90
16517;DHT22;8371;52.272;9.746;2022-12-18T01:34:47;-6.70;78.90
16517;DHT22;8371;52.272;9.746;2022-12-18T01:37:13;-6.80;78.90
16517;DHT22;8371;52.272;9.746;2022-12-18T01:39:39;-6.80;79.10
16517;DHT22;8371;52.272;9.746;2022-12-18T01:42:13;-6.80;79.10
16517;DHT22;8371;52.272;9.746;2022-12-18T01:45:01;-6.80;79.30
16517;DHT22;8371;52.272;9.746;2022-12-18T01:47:39;-6.80;79.30
16517;DHT22;8371;52.272;9.746;2022-12-18T01:50:19;-6.80;79.30
16517;DHT22;8371;52.272;9.746;2022-12-18T01:52:38;-6.80;79.40
16517;DHT22;8371;52.272;9.746;2022-12-18T01:55:06;-6.80;79.40
16517;DHT22;8371;52.272;9.746;2022-12-18T01:57:32;-6.70;79.50
16517;DHT22;8371;52.272;9.746;2022-12-18T02:00:09;-6.80;79.40
16517;DHT22;8371;52.272;9.746;2022-12-18T02:02:31;-6.80;79.50
16517;DHT22;8371;52.272;9.746;2022-12-18T02:04:58;-6.90;79.40
16517;DHT22;8371;52.272;9.746;2022-12-18T02:10:31;-6.90;79.50
16517;DHT22;8371;52.272;9.746;2022-12-18T02:13:11;-6.80;79.70
16517;DHT22;8371;52.272;9.746;2022-12-18T02:18:21;-6.80;80.00
16517;DHT22;8371;52.272;9.746;2022-12-18T02:23:43;-6.80;79.80
16517;DHT22;8371;52.272;9.746;2022-12-18T02:28:55;-6.80;79.60
16517;DHT22;8371;52.272;9.746;2022-12-18T02:31:44;-6.80;79.60
16517;DHT22;8371;52.272;9.746;2022-12-18T02:34:11;-6.80;79.50
16517;DHT22;8371;52.272;9.746;2022-12-18T02:36:40;-6.90;79.50
16517;DHT22;8371;52.272;9.746;2022-12-18T02:39:08;-6.90;79.50
16517;DHT22;8371;52.272;9.746;2022-12-18T02:41:38;-6.90;79.80
16517;DHT22;8371;52.272;9.746;2022-12-18T02:44:09;-6.90;79.90
16517;DHT22;8371;52.272;9.746;2022-12-18T02:49:27;-6.80;80.30
16517;DHT22;8371;52.272;9.746;2022-12-18T02:51:52;-6.70;80.50
16517;DHT22;8371;52.272;9.746;2022-12-18T02:54:44;-6.70;80.60
16517;DHT22;8371;52.272;9.746;2022-12-18T02:56:51;-6.60;80.80
16517;DHT22;8371;52.272;9.746;2022-12-18T03:04:52;-6.40;81.40
16517;DHT22;8371;52.272;9.746;2022-12-18T03:07:26;-6.30;81.60
16517;DHT22;8371;52.272;9.746;2022-12-18T03:09:50;-6.30;81.60
16517;DHT22;8371;52.272;9.746;2022-12-18T03:12:30;-6.20;81.70
16517;DHT22;8371;52.272;9.746;2022-12-18T03:17:33;-6.00;81.70
16517;DHT22;8371;52.272;9.746;2022-12-18T03:20:06;-6.00;81.60
16517;DHT22;8371;52.272;9.746;2022-12-18T03:22:33;-5.90;81.60
16517;DHT22;8371;52.272;9.746;2022-12-18T03:25:02;-5.80;81.60
16517;DHT22;8371;52.272;9.746;2022-12-18T03:27:31;-5.80;81.50
16517;DHT22;8371;52.272;9.746;2022-12-18T03:30:08;-5.70;81.50
16517;DHT22;8371;52.272;9.746;2022-12-18T03:32:57;-5.70;81.40
16517;DHT22;8371;52.272;9.746;2022-12-18T03:35:26;-5.60;81.50
16517;DHT22;8371;52.272;9.746;2022-12-18T03:37:51;-5.60;81.30
16517;DHT22;8371;52.272;9.746;2022-12-18T03:40:17;-5.60;81.20
16517;DHT22;8371;52.272;9.746;2022-12-18T03:42:49;-5.60;81.20
16517;DHT22;8371;52.272;9.746;2022-12-18T03:45:22;-5.60;81.10
16517;DHT22;8371;52.272;9.746;2022-12-18T03:48:07;-5.50;81.10
16517;DHT22;8371;52.272;9.746;2022-12-18T03:55:49;-5.50;81.40
16517;DHT22;8371;52.272;9.746;2022-12-18T03:58:19;-5.40;81.40
16517;DHT22;8371;52.272;9.746;2022-12-18T04:00:47;-5.40;81.40
16517;DHT22;8371;52.272;9.746;2022-12-18T04:03:16;-5.40;81.40
16517;DHT22;8371;52.272;9.746;2022-12-18T04:05:44;-5.30;81.40
16517;DHT22;8371;52.272;9.746;2022-12-18T04:08:11;-5.30;81.40
16517;DHT22;8371;52.272;9.746;2022-12-18T04:10:37;-5.30;81.30
16517;DHT22;8371;52.272;9.746;2022-12-18T04:13:03;-5.30;81.30
16517;DHT22;8371;52.272;9.746;2022-12-18T04:15:29;-5.30;81.10
16517;DHT22;8371;52.272;9.746;2022-12-18T04:17:54;-5.20;81.30
16517;DHT22;8371;52.272;9.746;2022-12-18T04:20:20;-5.20;81.10
16517;DHT22;8371;52.272;9.746;2022-12-18T04:22:46;-5.20;81.10
16517;DHT22;8371;52.272;9.746;2022-12-18T04:25:12;-5.20;81.00
16517;DHT22;8371;52.272;9.746;2022-12-18T04:27:38;-5.20;81.20
16517;DHT22;8371;52.272;9.746;2022-12-18T04:30:05;-5.20;81.10
16517;DHT22;8371;52.272;9.746;2022-12-18T04:32:33;-5.10;81.20
16517;DHT22;8371;52.272;9.746;2022-12-18T04:34:59;-5.10;81.10
16517;DHT22;8371;52.272;9.746;2022-12-18T04:37:25;-5.10;81.40
16517;DHT22;8371;52.272;9.746;2022-12-18T04:39:50;-5.10;81.00
16517;DHT22;8371;52.272;9.746;2022-12-18T04:42:16;-5.10;81.10
16517;DHT22;8371;52.272;9.746;2022-12-18T04:44:42;-5.10;81.90
16517;DHT22;8371;52.272;9.746;2022-12-18T04:47:07;-5.00;81.30
16517;DHT22;8371;52.272;9.746;2022-12-18T04:49:36;-5.00;81.20
16517;DHT22;8371;52.272;9.746;2022-12-18T04:52:02;-5.00;81.20
16517;DHT22;8371;52.272;9.746;2022-12-18T04:54:27;-5.00;81.30
16517;DHT22;8371;52.272;9.746;2022-12-18T04:56:53;-4.90;81.30
16517;DHT22;8371;52.272;9.746;2022-12-18T04:59:19;-4.90;81.30
16517;DHT22;8371;52.272;9.746;2022-12-18T05:01:44;-4.90;81.30
16517;DHT22;8371;52.272;9.746;2022-12-18T05:04:11;-4.90;81.40
16517;DHT22;8371;52.272;9.746;2022-12-18T05:06:36;-4.80;81.40
16517;DHT22;8371;52.272;9.746;2022-12-18T05:09:02;-4.80;81.50
16517;DHT22;8371;52.272;9.746;2022-12-18T05:11:28;-4.80;81.50
16517;DHT22;8371;52.272;9.746;2022-12-18T05:13:55;-4.70;81.60
16517;DHT22;8371;52.272;9.746;2022-12-18T05:16:21;-4.70;81.70
16517;DHT22;8371;52.272;9.746;2022-12-18T05:18:47;-4.60;81.90
16517;DHT22;8371;52.272;9.746;2022-12-18T05:21:13;-4.60;81.70
16517;DHT22;8371;52.272;9.746;2022-12-18T05:23:38;-4.50;81.70
16517;DHT22;8371;52.272;9.746;2022-12-18T05:26:05;-4.50;81.70
16517;DHT22;8371;52.272;9.746;2022-12-18T05:28:33;-4.50;81.60
16517;DHT22;8371;52.272;9.746;2022-12-18T05:31:00;-4.40;81.60
16517;DHT22;8371;52.272;9.746;2022-12-18T05:33:31;-4.40;81.50
16517;DHT22;8371;52.272;9.746;2022-12-18T05:35:59;-4.40;81.50
16517;DHT22;8371;52.272;9.746;2022-12-18T05:38:26;-4.40;81.50
16517;DHT22;8371;52.272;9.746;2022-12-18T05:40:52;-4.40;81.40
16517;DHT22;8371;52.272;9.746;2022-12-18T05:43:19;-4.30;81.30
16517;DHT22;8371;52.272;9.746;2022-12-18T05:45:45;-4.30;81.20
16517;DHT22;8371;52.272;9.746;2022-12-18T05:48:11;-4.30;81.10
16517;DHT22;8371;52.272;9.746;2022-12-18T05:50:38;-4.30;81.00
16517;DHT22;8371;52.272;9.746;2022-12-18T05:53:05;-4.30;80.90
16517;DHT22;8371;52.272;9.746;2022-12-18T05:55:35;-4.30;80.80
16517;DHT22;8371;52.272;9.746;2022-12-18T05:58:01;-4.30;80.80
16517;DHT22;8371;52.272;9.746;2022-12-18T06:00:28;-4.30;80.90
16517;DHT22;8371;52.272;9.746;2022-12-18T06:02:54;-4.30;80.80
16517;DHT22;8371;52.272;9.746;2022-12-18T06:05:19;-4.30;80.80
16517;DHT22;8371;52.272;9.746;2022-12-18T06:07:45;-4.30;80.90
16517;DHT22;8371;52.272;9.746;2022-12-18T06:10:11;-4.30;81.60
16517;DHT22;8371;52.272;9.746;2022-12-18T06:12:37;-4.30;81.00
16517;DHT22;8371;52.272;9.746;2022-12-18T06:15:03;-4.30;80.90
16517;DHT22;8371;52.272;9.746;2022-12-18T06:17:33;-4.30;80.90
16517;DHT22;8371;52.272;9.746;2022-12-18T06:19:59;-4.30;81.00
16517;DHT22;8371;52.272;9.746;2022-12-18T06:22:25;-4.30;81.00
16517;DHT22;8371;52.272;9.746;2022-12-18T06:24:51;-4.30;81.00
16517;DHT22;8371;52.272;9.746;2022-12-18T06:27:17;-4.30;81.00
16517;DHT22;8371;52.272;9.746;2022-12-18T06:29:43;-4.30;81.10
16517;DHT22;8371;52.272;9.746;2022-12-18T06:32:08;-4.30;81.10
16517;DHT22;8371;52.272;9.746;2022-12-18T06:34:34;-4.20;81.20
16517;DHT22;8371;52.272;9.746;2022-12-18T06:37:02;-4.20;81.10
16517;DHT22;8371;52.272;9.746;2022-12-18T06:39:27;-4.20;81.00
16517;DHT22;8371;52.272;9.746;2022-12-18T06:41:53;-4.20;81.00
16517;DHT22;8371;52.272;9.746;2022-12-18T06:44:19;-4.20;81.00
16517;DHT22;8371;52.272;9.746;2022-12-18T06:46:45;-4.20;80.90
16517;DHT22;8371;52.272;9.746;2022-12-18T06:49:11;-4.10;81.00
16517;DHT22;8371;52.272;9.746;2022-12-18T06:51:37;-4.10;80.90
16517;DHT22;8371;52.272;9.746;2022-12-18T06:54:03;-4.10;81.00
16517;DHT22;8371;52.272;9.746;2022-12-18T06:56:29;-4.10;80.90
16517;DHT22;8371;52.272;9.746;2022-12-18T06:58:55;-4.10;80.90
16517;DHT22;8371;52.272;9.746;2022-12-18T07:01:21;-4.10;81.40
16517;DHT22;8371;52.272;9.746;2022-12-18T07:03:52;-4.10;80.80
16517;DHT22;8371;52.272;9.746;2022-12-18T07:06:20;-4.10;81.60
16517;DHT22;8371;52.272;9.746;2022-12-18T07:08:46;-4.10;80.80
16517;DHT22;8371;52.272;9.746;2022-12-18T07:11:12;-4.10;80.70
16517;DHT22;8371;52.272;9.746;2022-12-18T07:13:38;-4.10;80.70
16517;DHT22;8371;52.272;9.746;2022-12-18T07:16:09;-4.10;80.60
16517;DHT22;8371;52.272;9.746;2022-12-18T07:18:35;-4.10;80.60
16517;DHT22;8371;52.272;9.746;2022-12-18T07:21:06;-4.10;80.50
16517;DHT22;8371;52.272;9.746;2022-12-18T07:23:33;-4.10;80.50
16517;DHT22;8371;52.272;9.746;2022-12-18T07:26:04;-4.10;80.50
16517;DHT22;8371;52.272;9.746;2022-12-18T07:28:31;-4.10;80.40
16517;DHT22;8371;52.272;9.746;2022-12-18T07:30:58;-4.10;80.40
16517;DHT22;8371;52.272;9.746;2022-12-18T07:33:24;-4.10;80.40
16517;DHT22;8371;52.272;9.746;2022-12-18T07:35:51;-4.10;80.40
16517;DHT22;8371;52.272;9.746;2022-12-18T07:38:16;-4.10;80.40
16517;DHT22;8371;52.272;9.746;2022-12-18T07:40:42;-4.10;80.50
16517;DHT22;8371;52.272;9.746;2022-12-18T07:43:08;-4.10;80.60
16517;DHT22;8371;52.272;9.746;2022-12-18T07:45:33;-4.10;80.60
16517;DHT22;8371;52.272;9.746;2022-12-18T07:47:59;-4.10;80.70
16517;DHT22;8371;52.272;9.746;2022-12-18T07:50:25;-4.10;80.70
16517;DHT22;8371;52.272;9.746;2022-12-18T07:52:50;-4.00;80.80
16517;DHT22;8371;52.272;9.746;2022-12-18T07:55:16;-4.10;80.70
16517;DHT22;8371;52.272;9.746;2022-12-18T07:57:42;-4.00;80.80
16517;DHT22;8371;52.272;9.746;2022-12-18T08:00:09;-4.00;80.80
16517;DHT22;8371;52.272;9.746;2022-12-18T08:02:34;-4.00;80.80
16517;DHT22;8371;52.272;9.746;2022-12-18T08:05:00;-3.90;81.00
16517;DHT22;8371;52.272;9.746;2022-12-18T08:07:26;-3.90;81.10
16517;DHT22;8371;52.272;9.746;2022-12-18T08:09:52;-3.90;81.20
16517;DHT22;8371;52.272;9.746;2022-12-18T08:12:18;-3.80;81.60
16517;DHT22;8371;52.272;9.746;2022-12-18T08:14:43;-3.80;81.50
16517;DHT22;8371;52.272;9.746;2022-12-18T08:17:09;-3.70;81.70
16517;DHT22;8371;52.272;9.746;2022-12-18T08:19:35;-3.60;81.80
16517;DHT22;8371;52.272;9.746;2022-12-18T08:22:00;-3.60;81.80
16517;DHT22;8371;52.272;9.746;2022-12-18T08:24:26;-3.50;81.80
16517;DHT22;8371;52.272;9.746;2022-12-18T08:26:52;-3.40;81.80
16517;DHT22;8371;52.272;9.746;2022-12-18T08:29:17;-3.30;81.90
16517;DHT22;8371;52.272;9.746;2022-12-18T08:31:43;-3.30;81.70
16517;DHT22;8371;52.272;9.746;2022-12-18T08:34:09;-3.30;81.60
16517;DHT22;8371;52.272;9.746;2022-12-18T08:36:34;-3.20;81.50
16517;DHT22;8371;52.272;9.746;2022-12-18T08:39:00;-3.20;81.50
16517;DHT22;8371;52.272;9.746;2022-12-18T08:41:26;-3.10;81.40
16517;DHT22;8371;52.272;9.746;2022-12-18T08:43:52;-3.00;81.40
16517;DHT22;8371;52.272;9.746;2022-12-18T08:46:38;-3.00;81.30
16517;DHT22;8371;52.272;9.746;2022-12-18T08:49:06;-2.90;81.30
16517;DHT22;8371;52.272;9.746;2022-12-18T08:51:34;-2.90;81.20
16517;DHT22;8371;52.272;9.746;2022-12-18T08:54:01;-2.90;81.20
16517;DHT22;8371;52.272;9.746;2022-12-18T08:56:27;-2.90;81.20
16517;DHT22;8371;52.272;9.746;2022-12-18T08:58:54;-2.80;81.30
16517;DHT22;8371;52.272;9.746;2022-12-18T09:01:20;-2.80;81.30
16517;DHT22;8371;52.272;9.746;2022-12-18T09:03:47;-2.80;81.40
16517;DHT22;8371;52.272;9.746;2022-12-18T09:06:15;-2.70;81.40
16517;DHT22;8371;52.272;9.746;2022-12-18T09:08:42;-2.70;81.30
16517;DHT22;8371;52.272;9.746;2022-12-18T09:11:22;-2.50;81.40
16517;DHT22;8371;52.272;9.746;2022-12-18T09:13:49;-2.50;81.50
16517;DHT22;8371;52.272;9.746;2022-12-18T09:16:16;-2.50;81.40
16517;DHT22;8371;52.272;9.746;2022-12-18T09:18:41;-2.40;81.50
16517;DHT22;8371;52.272;9.746;2022-12-18T09:21:09;-2.40;81.40
16517;DHT22;8371;52.272;9.746;2022-12-18T09:23:35;-2.30;81.50
16517;DHT22;8371;52.272;9.746;2022-12-18T09:26:00;-2.20;81.60
16517;DHT22;8371;52.272;9.746;2022-12-18T09:28:26;-2.20;81.50
16517;DHT22;8371;52.272;9.746;2022-12-18T09:30:52;-2.10;81.60
16517;DHT22;8371;52.272;9.746;2022-12-18T09:33:18;-2.00;81.60
16517;DHT22;8371;52.272;9.746;2022-12-18T09:35:45;-2.00;81.50
16517;DHT22;8371;52.272;9.746;2022-12-18T09:38:13;-1.90;81.50
16517;DHT22;8371;52.272;9.746;2022-12-18T09:40:42;-1.80;81.60
16517;DHT22;8371;52.272;9.746;2022-12-18T09:43:24;-1.80;81.50
16517;DHT22;8371;52.272;9.746;2022-12-18T09:45:52;-1.70;81.50
16517;DHT22;8371;52.272;9.746;2022-12-18T09:48:25;-1.70;81.40
16517;DHT22;8371;52.272;9.746;2022-12-18T09:50:54;-1.60;81.50
16517;DHT22;8371;52.272;9.746;2022-12-18T09:53:24;-1.50;81.60
16517;DHT22;8371;52.272;9.746;2022-12-18T09:55:51;-1.50;81.60
16517;DHT22;8371;52.272;9.746;2022-12-18T09:58:28;-1.30;81.80
16517;DHT22;8371;52.272;9.746;2022-12-18T10:00:54;-1.30;81.90
16517;DHT22;8371;52.272;9.746;2022-12-18T10:03:20;-1.20;81.90
16517;DHT22;8371;52.272;9.746;2022-12-18T10:06:07;-1.10;82.00
16517;DHT22;8371;52.272;9.746;2022-12-18T10:08:59;-1.00;82.10
16517;DHT22;8371;52.272;9.746;2022-12-18T10:20:31;-0.50;82.30
16517;DHT22;8371;52.272;9.746;2022-12-18T10:25:45;-0.20;82.20
16517;DHT22;8371;52.272;9.746;2022-12-18T10:28:13;0.00;82.10
16517;DHT22;8371;52.272;9.746;2022-12-18T10:30:41;0.10;82.00
16517;DHT22;8371;52.272;9.746;2022-12-18T10:33:13;0.20;81.90
16517;DHT22;8371;52.272;9.746;2022-12-18T10:35:41;0.30;81.90
16517;DHT22;8371;52.272;9.746;2022-12-18T10:40:54;0.60;81.90
16517;DHT22;8371;52.272;9.746;2022-12-18T10:48:29;1.00;81.60
16517;DHT22;8371;52.272;9.746;2022-12-18T10:51:02;1.10;81.50
16517;DHT22;8371;52.272;9.746;2022-12-18T10:53:31;1.20;81.40
16517;DHT22;8371;52.272;9.746;2022-12-18T10:56:00;1.30;81.30
16517;DHT22;8371;52.272;9.746;2022-12-18T10:58:31;1.40;81.30
16517;DHT22;8371;52.272;9.746;2022-12-18T11:03:42;1.70;81.10
16517;DHT22;8371;52.272;9.746;2022-12-18T11:06:21;1.80;81.00
16517;DHT22;8371;52.272;9.746;2022-12-18T11:09:04;1.90;81.00
16517;DHT22;8371;52.272;9.746;2022-12-18T11:11:31;2.00;80.90
16517;DHT22;8371;52.272;9.746;2022-12-18T11:14:03;2.10;80.80
16517;DHT22;8371;52.272;9.746;2022-12-18T11:16:33;2.20;80.70
16517;DHT22;8371;52.272;9.746;2022-12-18T11:21:47;2.40;80.50
16517;DHT22;8371;52.272;9.746;2022-12-18T11:24:31;2.60;80.50
16517;DHT22;8371;52.272;9.746;2022-12-18T11:27:02;2.70;80.50
16517;DHT22;8371;52.272;9.746;2022-12-18T11:32:20;2.80;80.20
16517;DHT22;8371;52.272;9.746;2022-12-18T11:34:46;2.90;80.10
16517;DHT22;8371;52.272;9.746;2022-12-18T11:37:15;3.00;79.80
16517;DHT22;8371;52.272;9.746;2022-12-18T11:39:55;3.00;80.40
16517;DHT22;8371;52.272;9.746;2022-12-18T11:42:41;3.10;79.50
16517;DHT22;8371;52.272;9.746;2022-12-18T11:45:23;3.20;79.50
16517;DHT22;8371;52.272;9.746;2022-12-18T11:48:09;3.20;79.40
16517;DHT22;8371;52.272;9.746;2022-12-18T11:50:46;3.20;79.20
16517;DHT22;8371;52.272;9.746;2022-12-18T11:53:09;3.20;79.10
16517;DHT22;8371;52.272;9.746;2022-12-18T11:58:30;3.30;78.90
16517;DHT22;8371;52.272;9.746;2022-12-18T12:01:06;3.30;78.80
16517;DHT22;8371;52.272;9.746;2022-12-18T12:03:39;3.30;78.60
16517;DHT22;8371;52.272;9.746;2022-12-18T12:09:12;3.30;78.40
16517;DHT22;8371;52.272;9.746;2022-12-18T12:19:45;3.30;77.80
16517;DHT22;8371;52.272;9.746;2022-12-18T12:22:39;3.20;77.70
16517;DHT22;8371;52.272;9.746;2022-12-18T12:35:46;3.10;77.60
16517;DHT22;8371;52.272;9.746;2022-12-18T12:38:14;3.00;77.50
16517;DHT22;8371;52.272;9.746;2022-12-18T12:40:45;3.00;77.10
16517;DHT22;8371;52.272;9.746;2022-12-18T12:43:27;2.90;77.40
16517;DHT22;8371;52.272;9.746;2022-12-18T12:45:58;2.90;77.40
16517;DHT22;8371;52.272;9.746;2022-12-18T12:51:28;2.90;77.20
16517;DHT22;8371;52.272;9.746;2022-12-18T12:53:57;2.90;77.20
16517;DHT22;8371;52.272;9.746;2022-12-18T12:56:36;2.80;77.30
16517;DHT22;8371;52.272;9.746;2022-12-18T12:59:11;2.80;77.00
16517;DHT22;8371;52.272;9.746;2022-12-18T13:07:05;2.80;77.10
16517;DHT22;8371;52.272;9.746;2022-12-18T13:09:32;2.80;77.40
16517;DHT22;8371;52.272;9.746;2022-12-18T13:12:11;2.80;77.10
16517;DHT22;8371;52.272;9.746;2022-12-18T13:15:12;2.70;77.20
16517;DHT22;8371;52.272;9.746;2022-12-18T13:17:29;2.70;77.20
16517;DHT22;8371;52.272;9.746;2022-12-18T13:28:00;2.60;77.10
16517;DHT22;8371;52.272;9.746;2022-12-18T13:41:21;2.50;77.20
16517;DHT22;8371;52.272;9.746;2022-12-18T13:51:39;2.30;76.90
16517;DHT22;8371;52.272;9.746;2022-12-18T13:54:18;2.20;76.80
16517;DHT22;8371;52.272;9.746;2022-12-18T13:56:46;2.20;76.70
16517;DHT22;8371;52.272;9.746;2022-12-18T13:59:18;2.10;76.80
16517;DHT22;8371;52.272;9.746;2022-12-18T14:01:56;2.10;77.00
16517;DHT22;8371;52.272;9.746;2022-12-18T14:04:28;2.00;76.90
16517;DHT22;8371;52.272;9.746;2022-12-18T14:07:03;1.90;76.60
16517;DHT22;8371;52.272;9.746;2022-12-18T14:09:33;1.90;76.90
16517;DHT22;8371;52.272;9.746;2022-12-18T14:11:59;1.80;76.80
16517;DHT22;8371;52.272;9.746;2022-12-18T14:14:46;1.70;76.70
16517;DHT22;8371;52.272;9.746;2022-12-18T14:17:13;1.70;76.80
16517;DHT22;8371;52.272;9.746;2022-12-18T14:19:48;1.60;76.90
16517;DHT22;8371;52.272;9.746;2022-12-18T14:22:18;1.50;76.80
16517;DHT22;8371;52.272;9.746;2022-12-18T14:24:44;1.50;76.80
16517;DHT22;8371;52.272;9.746;2022-12-18T14:27:22;1.50;76.90
16517;DHT22;8371;52.272;9.746;2022-12-18T14:29:49;1.40;76.90
16517;DHT22;8371;52.272;9.746;2022-12-18T14:32:20;1.30;76.90
16517;DHT22;8371;52.272;9.746;2022-12-18T14:34:52;1.30;77.10
16517;DHT22;8371;52.272;9.746;2022-12-18T14:37:24;1.20;76.90
16517;DHT22;8371;52.272;9.746;2022-12-18T14:39:55;1.20;76.80
16517;DHT22;8371;52.272;9.746;2022-12-18T14:42:22;1.10;77.00
16517;DHT22;8371;52.272;9.746;2022-12-18T14:44:47;1.10;76.70
16517;DHT22;8371;52.272;9.746;2022-12-18T14:47:15;1.00;76.70
16517;DHT22;8371;52.272;9.746;2022-12-18T14:49:42;0.90;76.70
16517;DHT22;8371;52.272;9.746;2022-12-18T14:52:27;0.90;76.80
16517;DHT22;8371;52.272;9.746;2022-12-18T14:54:49;0.80;76.80
16517;DHT22;8371;52.272;9.746;2022-12-18T14:57:24;0.70;76.70
16517;DHT22;8371;52.272;9.746;2022-12-18T14:59:50;0.70;76.80
16517;DHT22;8371;52.272;9.746;2022-12-18T15:02:25;0.60;76.90
16517;DHT22;8371;52.272;9.746;2022-12-18T15:05:14;0.60;76.90
16517;DHT22;8371;52.272;9.746;2022-12-18T15:07:44;0.50;76.90
16517;DHT22;8371;52.272;9.746;2022-12-18T15:10:14;0.40;77.00
16517;DHT22;8371;52.272;9.746;2022-12-18T15:12:46;0.40;77.10
16517;DHT22;8371;52.272;9.746;2022-12-18T15:23:36;0.20;77.30
16517;DHT22;8371;52.272;9.746;2022-12-18T15:31:05;0.10;77.50
16517;DHT22;8371;52.272;9.746;2022-12-18T15:33:34;0.00;77.50
16517;DHT22;8371;52.272;9.746;2022-12-18T15:36:02;0.00;77.50
16517;DHT22;8371;52.272;9.746;2022-12-18T15:38:28;0.00;77.60
16517;DHT22;8371;52.272;9.746;2022-12-18T15:40:54;-0.10;77.50
16517;DHT22;8371;52.272;9.746;2022-12-18T15:43:22;-0.10;77.60
16517;DHT22;8371;52.272;9.746;2022-12-18T15:46:05;-0.10;77.50
16517;DHT22;8371;52.272;9.746;2022-12-18T15:48:39;-0.20;77.50
16517;DHT22;8371;52.272;9.746;2022-12-18T15:51:11;-0.20;77.50
16517;DHT22;8371;52.272;9.746;2022-12-18T15:53:35;-0.20;77.60
16517;DHT22;8371;52.272;9.746;2022-12-18T15:56:01;-0.30;77.50
16517;DHT22;8371;52.272;9.746;2022-12-18T15:58:45;-0.30;77.50
16517;DHT22;8371;52.272;9.746;2022-12-18T16:01:11;-0.30;77.50
16517;DHT22;8371;52.272;9.746;2022-12-18T16:03:37;-0.30;77.60
16517;DHT22;8371;52.272;9.746;2022-12-18T16:06:03;-0.30;77.70
16517;DHT22;8371;52.272;9.746;2022-12-18T16:08:29;-0.40;77.80
16517;DHT22;8371;52.272;9.746;2022-12-18T16:10:56;-0.40;77.90
16517;DHT22;8371;52.272;9.746;2022-12-18T16:13:22;-0.40;78.00
16517;DHT22;8371;52.272;9.746;2022-12-18T16:15:48;-0.30;78.10
16517;DHT22;8371;52.272;9.746;2022-12-18T16:18:14;-0.30;78.00
16517;DHT22;8371;52.272;9.746;2022-12-18T16:20:40;-0.30;78.20
16517;DHT22;8371;52.272;9.746;2022-12-18T16:23:06;-0.30;78.10
16517;DHT22;8371;52.272;9.746;2022-12-18T16:25:32;-0.30;78.20
16517;DHT22;8371;52.272;9.746;2022-12-18T16:27:58;-0.30;78.20
16517;DHT22;8371;52.272;9.746;2022-12-18T16:30:30;-0.30;78.20
16517;DHT22;8371;52.272;9.746;2022-12-18T16:32:54;-0.30;78.20
16517;DHT22;8371;52.272;9.746;2022-12-18T16:35:20;-0.20;79.00
16517;DHT22;8371;52.272;9.746;2022-12-18T16:37:46;-0.20;78.30
16517;DHT22;8371;52.272;9.746;2022-12-18T16:40:13;-0.20;78.20
16517;DHT22;8371;52.272;9.746;2022-12-18T16:42:41;-0.20;78.30
16517;DHT22;8371;52.272;9.746;2022-12-18T16:45:09;-0.20;78.30
16517;DHT22;8371;52.272;9.746;2022-12-18T16:47:36;-0.20;78.30
16517;DHT22;8371;52.272;9.746;2022-12-18T16:50:02;-0.20;78.20
16517;DHT22;8371;52.272;9.746;2022-12-18T16:52:28;-0.20;78.30
16517;DHT22;8371;52.272;9.746;2022-12-18T16:54:55;-0.20;78.30
16517;DHT22;8371;52.272;9.746;2022-12-18T16:57:21;-0.10;78.40
16517;DHT22;8371;52.272;9.746;2022-12-18T16:59:47;-0.10;78.40
16517;DHT22;8371;52.272;9.746;2022-12-18T17:02:16;-0.10;78.40
16517;DHT22;8371;52.272;9.746;2022-12-18T17:04:42;-0.10;78.30
16517;DHT22;8371;52.272;9.746;2022-12-18T17:07:09;-0.10;78.40
16517;DHT22;8371;52.272;9.746;2022-12-18T17:09:35;-0.10;78.40
16517;DHT22;8371;52.272;9.746;2022-12-18T17:12:01;0.00;78.40
16517;DHT22;8371;52.272;9.746;2022-12-18T17:14:26;0.00;78.40
16517;DHT22;8371;52.272;9.746;2022-12-18T17:16:53;0.00;78.30
16517;DHT22;8371;52.272;9.746;2022-12-18T17:19:19;0.00;78.30
16517;DHT22;8371;52.272;9.746;2022-12-18T17:21:48;0.00;78.30
16517;DHT22;8371;52.272;9.746;2022-12-18T17:24:14;0.00;78.30
16517;DHT22;8371;52.272;9.746;2022-12-18T17:26:40;0.00;78.30
16517;DHT22;8371;52.272;9.746;2022-12-18T17:29:07;0.10;78.30
16517;DHT22;8371;52.272;9.746;2022-12-18T17:31:33;0.10;78.30
16517;DHT22;8371;52.272;9.746;2022-12-18T17:34:00;0.10;78.30
16517;DHT22;8371;52.272;9.746;2022-12-18T17:36:29;0.10;78.40
16517;DHT22;8371;52.272;9.746;2022-12-18T17:38:59;0.10;78.30
16517;DHT22;8371;52.272;9.746;2022-12-18T17:41:26;0.20;78.40
16517;DHT22;8371;52.272;9.746;2022-12-18T17:43:58;0.20;78.40
16517;DHT22;8371;52.272;9.746;2022-12-18T17:46:21;0.30;78.50
16517;DHT22;8371;52.272;9.746;2022-12-18T17:48:47;0.30;79.10
16517;DHT22;8371;52.272;9.746;2022-12-18T17:51:14;0.40;78.50
16517;DHT22;8371;52.272;9.746;2022-12-18T17:53:41;0.40;78.50
16517;DHT22;8371;52.272;9.746;2022-12-18T17:56:09;0.50;78.50
16517;DHT22;8371;52.272;9.746;2022-12-18T17:58:36;0.60;78.40
16517;DHT22;8371;52.272;9.746;2022-12-18T18:01:03;0.60;78.40
16517;DHT22;8371;52.272;9.746;2022-12-18T18:03:30;0.70;78.30
16517;DHT22;8371;52.272;9.746;2022-12-18T18:05:58;0.80;78.30
16517;DHT22;8371;52.272;9.746;2022-12-18T18:08:25;0.80;78.20